Time;durP1;ratioP1;P1;durP2;ratioP2;P2;SDS_P1;SDS_P2;PMS_P1;PMS_P2;Temp;Humidity;BMP_temperature;BMP_pressure;BME280_temperature;BME280_humidity;BME280_pressure;Samples;Min_cycle;Max_cycle;Signal;HPM_P1;HPM_P2
2023/01/03 16:11:58;;;;;;;15.70;10.20;;;7.60;99.90;;;;;;5091596;27;21074;-67
2023/01/03 16:14:33;;;;;;;14.90;11.17;;;7.60;99.90;;;;;;5091505;28;20453;-66
2023/01/03 16:17:00;;;;;;;18.53;11.50;;;7.80;99.90;;;;;;5091214;28;20437;-65
2023/01/03 16:19:28;;;;;;;14.17;9.93;;;8.20;99.90;;;;;;5091121;28;20449;-64
2023/01/03 16:21:59;;;;;;;9.73;6.73;;;8.50;99.90;;;;;;5090735;28;20910;-68
2023/01/03 16:24:26;;;;;;;7.47;5.73;;;8.80;99.90;;;;;;5091313;28;20503;-66
2023/01/03 16:26:54;;;;;;;15.20;10.20;;;9.20;99.90;;;;;;5091203;28;20457;-66
2023/01/03 16:29:22;;;;;;;10.20;7.60;;;9.60;99.90;;;;;;5091539;28;20479;-64
2023/01/03 16:31:48;;;;;;;10.60;7.70;;;9.80;99.90;;;;;;5090944;28;20602;-64
2023/01/03 16:34:18;;;;;;;7.13;5.93;;;10.00;99.90;;;;;;5091068;28;20460;-64
2023/01/03 16:36:46;;;;;;;10.30;6.57;;;10.10;99.90;;;;;;5091401;28;20557;-64
2023/01/03 16:39:16;;;;;;;6.50;4.60;;;10.20;99.90;;;;;;5092245;28;20507;-64
2023/01/03 16:42:11;;;;;;;7.03;5.23;;;10.10;99.90;;;;;;5092533;28;20466;-64
2023/01/03 16:44:32;;;;;;;5.57;4.50;;;10.10;99.90;;;;;;5091661;28;20495;-65
2023/01/03 16:46:59;;;;;;;8.30;4.97;;;10.10;99.90;;;;;;5091906;28;20998;-64
2023/01/03 16:49:28;;;;;;;7.20;5.27;;;10.00;99.90;;;;;;5092890;28;20457;-67
2023/01/03 16:51:55;;;;;;;5.43;4.80;;;10.00;99.90;;;;;;5091839;28;20604;-64
2023/01/03 16:54:22;;;;;;;4.87;4.37;;;10.00;99.90;;;;;;5092337;28;20848;-65
2023/01/03 16:56:49;;;;;;;4.53;4.10;;;10.00;99.90;;;;;;5091905;28;20502;-64
2023/01/03 16:59:16;;;;;;;4.97;4.47;;;10.00;99.90;;;;;;5097711;28;20453;-64
2023/01/03 17:01:44;;;;;;;4.03;3.73;;;10.00;99.90;;;;;;5096752;28;20509;-64
2023/01/03 17:04:11;;;;;;;6.90;4.23;;;10.00;99.90;;;;;;5099255;28;20449;-65
2023/01/03 17:06:39;;;;;;;4.70;3.60;;;10.00;99.90;;;;;;5094779;28;20449;-65
2023/01/03 17:09:12;;;;;;;3.90;3.60;;;10.00;99.90;;;;;;5091811;28;20460;-65
2023/01/03 17:11:39;;;;;;;5.27;4.47;;;10.00;99.90;;;;;;5089781;28;20523;-64
2023/01/03 17:14:05;;;;;;;4.60;4.20;;;10.00;99.90;;;;;;5090257;28;20454;-69
2023/01/03 17:16:32;;;;;;;4.43;4.00;;;10.00;99.90;;;;;;5090411;28;20456;-65
2023/01/03 17:19:01;;;;;;;4.97;3.73;;;10.10;99.90;;;;;;5090206;28;20449;-64
2023/01/03 17:21:29;;;;;;;7.30;4.00;;;10.00;99.90;;;;;;5086742;28;20462;-65
2023/01/03 17:24:00;;;;;;;6.43;4.20;;;10.00;99.90;;;;;;5076608;28;20535;-65
2023/01/03 17:26:27;;;;;;;5.63;4.90;;;10.00;99.90;;;;;;5076617;28;20442;-65
2023/01/03 17:28:54;;;;;;;5.80;5.13;;;10.00;99.90;;;;;;5076560;28;20796;-64
2023/01/03 17:31:22;;;;;;;5.23;4.83;;;10.00;99.90;;;;;;5075892;28;20484;-65
2023/01/03 17:33:50;;;;;;;6.70;6.00;;;10.00;99.90;;;;;;5076334;28;20503;-65
2023/01/03 17:36:23;;;;;;;5.07;4.47;;;9.90;99.90;;;;;;5076158;28;20858;-65
2023/01/03 17:38:50;;;;;;;8.43;5.60;;;9.90;99.90;;;;;;5076270;28;20473;-65
2023/01/03 17:41:19;;;;;;;7.73;6.57;;;9.90;99.90;;;;;;5075764;28;20527;-65
2023/01/03 17:43:46;;;;;;;12.80;8.37;;;9.80;99.90;;;;;;5076265;28;20843;-65
2023/01/03 17:49:24;;;;;;;11.10;8.17;;;9.80;99.90;;;;;;5076142;28;20417;-65
2023/01/03 17:51:53;;;;;;;7.43;6.43;;;9.80;99.90;;;;;;5076005;28;20508;-67
2023/01/03 17:54:24;;;;;;;7.33;6.40;;;9.80;99.90;;;;;;5076260;28;20458;-67
2023/01/03 17:56:50;;;;;;;6.50;5.97;;;9.70;99.90;;;;;;5076491;28;20442;-67
2023/01/03 17:59:17;;;;;;;6.03;5.53;;;9.70;99.90;;;;;;5077167;28;20458;-67
2023/01/03 18:01:44;;;;;;;7.27;6.57;;;9.70;99.90;;;;;;5076617;28;20462;-67
2023/01/03 18:04:11;;;;;;;6.30;5.70;;;9.70;99.90;;;;;;5076438;28;20887;-67
2023/01/03 18:06:39;;;;;;;8.00;5.80;;;9.60;99.90;;;;;;5076508;28;20499;-67
2023/01/03 18:09:11;;;;;;;7.67;5.67;;;9.60;99.90;;;;;;5076542;28;21008;-66
2023/01/03 18:11:38;;;;;;;7.67;6.03;;;9.60;99.90;;;;;;5076109;28;20474;-67
2023/01/03 18:14:04;;;;;;;6.20;5.70;;;9.50;99.90;;;;;;5076420;28;20450;-67
2023/01/03 18:16:31;;;;;;;7.80;6.97;;;9.50;99.90;;;;;;5076578;28;20458;-67
2023/01/03 18:18:58;;;;;;;11.90;8.63;;;9.50;99.90;;;;;;5076101;28;20519;-66
2023/01/03 18:21:27;;;;;;;12.10;8.70;;;9.40;99.90;;;;;;5075807;28;20805;-67
2023/01/03 18:23:57;;;;;;;9.03;8.23;;;9.30;99.90;;;;;;5075979;28;20486;-67
2023/01/03 18:26:29;;;;;;;9.17;8.27;;;9.30;99.90;;;;;;5076093;28;20509;-67
2023/01/03 18:28:56;;;;;;;10.53;8.10;;;9.20;99.90;;;;;;5076399;28;20442;-67
2023/01/03 18:31:23;;;;;;;9.87;8.97;;;9.10;99.90;;;;;;5076474;28;20481;-66
2023/01/03 18:33:49;;;;;;;11.37;9.77;;;9.00;99.90;;;;;;5074755;28;21004;-67
2023/01/03 18:36:25;;;;;;;11.70;10.40;;;9.00;99.90;;;;;;5076012;28;20450;-67
2023/01/03 18:38:55;;;;;;;11.50;9.43;;;9.00;99.90;;;;;;5076440;28;20476;-66
2023/01/03 18:41:27;;;;;;;10.53;9.40;;;9.00;99.90;;;;;;5076016;28;20477;-66
2023/01/03 18:43:54;;;;;;;11.07;9.90;;;8.90;99.90;;;;;;5075952;28;20838;-66
2023/01/03 18:46:21;;;;;;;10.97;9.87;;;8.90;99.90;;;;;;5075792;28;20454;-66
2023/01/03 18:48:48;;;;;;;12.13;9.70;;;8.90;99.90;;;;;;5075845;28;20500;-66
2023/01/03 18:51:17;;;;;;;11.60;9.50;;;8.80;99.90;;;;;;5075727;28;20478;-66
2023/01/03 18:53:46;;;;;;;9.97;8.97;;;8.80;99.90;;;;;;5075897;28;20454;-66
2023/01/03 18:56:28;;;;;;;9.53;8.60;;;8.80;99.90;;;;;;5075813;28;20454;-66
2023/01/03 18:58:57;;;;;;;13.23;10.00;;;8.80;99.90;;;;;;5077081;28;20438;-66
2023/01/03 19:01:24;;;;;;;12.80;9.10;;;8.70;99.90;;;;;;5075306;28;20977;-67
2023/01/03 19:03:51;;;;;;;10.63;9.53;;;8.70;99.90;;;;;;5075530;28;20454;-66
2023/01/03 19:06:21;;;;;;;9.30;8.40;;;8.70;99.90;;;;;;5075237;28;20511;-66
2023/01/03 19:08:48;;;;;;;11.07;9.20;;;8.60;99.90;;;;;;5075755;28;20445;-66
2023/01/03 19:11:18;;;;;;;12.87;10.00;;;8.60;99.90;;;;;;5074951;28;20482;-67
2023/01/03 19:13:53;;;;;;;14.07;12.67;;;8.50;99.90;;;;;;5075407;28;20527;-69
2023/01/03 19:16:21;;;;;;;9.90;8.93;;;8.40;99.90;;;;;;5075165;28;20434;-65
2023/01/03 19:18:48;;;;;;;8.93;8.13;;;8.30;99.90;;;;;;5075020;28;20871;-66
2023/01/03 19:21:15;;;;;;;11.30;9.00;;;8.30;99.90;;;;;;5074886;28;20520;-66
2023/01/03 19:23:45;;;;;;;12.70;9.40;;;8.20;99.90;;;;;;5074128;28;20938;-67
2023/01/03 19:26:25;;;;;;;11.50;10.30;;;8.20;99.90;;;;;;5074549;28;20827;-66
2023/01/03 19:28:55;;;;;;;14.63;12.23;;;8.20;99.90;;;;;;5074719;28;20434;-66
2023/01/03 19:31:22;;;;;;;13.83;11.57;;;8.20;99.90;;;;;;5074848;28;20593;-66
2023/01/03 19:33:49;;;;;;;14.97;10.40;;;8.10;99.90;;;;;;5074607;28;20537;-66
2023/01/03 19:36:17;;;;;;;13.70;9.90;;;8.10;99.90;;;;;;5074508;28;20796;-66
2023/01/03 19:38:43;;;;;;;11.30;10.10;;;8.10;99.90;;;;;;5073877;28;20980;-67
2023/01/03 19:41:16;;;;;;;11.40;9.93;;;8.10;99.90;;;;;;5073882;28;20520;-67
2023/01/03 19:43:43;;;;;;;10.67;9.57;;;8.10;99.90;;;;;;5074409;28;20449;-67
2023/01/03 19:46:14;;;;;;;11.93;9.10;;;8.00;99.90;;;;;;5074008;28;20504;-67
2023/01/03 19:48:40;;;;;;;13.30;10.00;;;8.00;99.90;;;;;;5074379;28;20434;-67
2023/01/03 19:51:09;;;;;;;20.60;10.37;;;7.90;99.90;;;;;;5074316;28;20478;-67
2023/01/03 19:53:36;;;;;;;12.33;10.20;;;7.90;99.90;;;;;;5073961;28;21014;-67
2023/01/03 19:56:03;;;;;;;12.70;10.43;;;7.80;99.90;;;;;;5074081;28;20964;-66
2023/01/03 19:58:34;;;;;;;14.10;11.80;;;7.80;99.90;;;;;;5074056;28;20933;-66
2023/01/03 20:01:02;;;;;;;12.60;11.10;;;7.80;99.90;;;;;;5073884;28;20989;-66
2023/01/03 20:03:32;;;;;;;12.03;9.83;;;7.80;99.90;;;;;;5074184;28;20450;-66
2023/01/03 20:05:59;;;;;;;14.50;9.87;;;7.70;99.90;;;;;;5074231;28;20503;-66
2023/01/03 20:08:26;;;;;;;11.00;9.50;;;7.70;99.90;;;;;;5074213;28;20453;-66
2023/01/03 20:10:54;;;;;;;10.33;8.83;;;7.60;99.90;;;;;;5073667;28;20512;-66
2023/01/03 20:13:22;;;;;;;10.73;9.20;;;7.60;99.90;;;;;;5074230;28;20450;-67
2023/01/03 20:15:51;;;;;;;14.00;9.60;;;7.60;99.90;;;;;;5074416;28;20537;-66
2023/01/03 20:18:28;;;;;;;12.03;9.57;;;7.60;99.90;;;;;;5074383;28;20447;-66
2023/01/03 20:20:59;;;;;;;11.60;9.20;;;7.60;99.90;;;;;;5073971;28;20480;-66
2023/01/03 20:23:31;;;;;;;19.20;10.43;;;7.50;99.90;;;;;;5073688;28;20967;-66
2023/01/03 20:25:58;;;;;;;14.23;11.30;;;7.50;99.90;;;;;;5074316;28;20806;-66
2023/01/03 20:28:28;;;;;;;13.67;10.63;;;7.40;99.90;;;;;;5074503;28;20450;-65
2023/01/03 20:30:54;;;;;;;12.87;10.10;;;7.40;99.90;;;;;;5073914;28;20477;-66
2023/01/03 20:33:22;;;;;;;11.30;10.10;;;7.40;99.90;;;;;;5074040;28;20454;-66
2023/01/03 20:35:50;;;;;;;13.80;9.53;;;7.30;99.90;;;;;;5073944;28;20457;-67
2023/01/03 20:38:23;;;;;;;11.67;10.50;;;7.30;99.90;;;;;;5073596;28;20575;-67
2023/01/03 20:40:50;;;;;;;11.43;10.20;;;7.30;99.90;;;;;;5073612;28;20569;-66
2023/01/03 20:43:17;;;;;;;10.53;9.43;;;7.30;99.90;;;;;;5073343;28;20438;-66
2023/01/03 20:45:44;;;;;;;11.50;10.10;;;7.30;99.90;;;;;;5073474;28;20511;-66
2023/01/03 20:48:14;;;;;;;10.27;8.97;;;7.30;99.90;;;;;;5073408;28;20477;-65
2023/01/03 20:50:42;;;;;;;14.53;10.20;;;7.30;99.90;;;;;;5074617;28;20474;-66
2023/01/03 20:53:16;;;;;;;9.97;8.97;;;7.30;99.90;;;;;;5073902;28;20480;-66
2023/01/03 20:55:44;;;;;;;10.80;9.70;;;7.30;99.90;;;;;;5073523;28;20457;-66
2023/01/03 20:58:14;;;;;;;13.40;9.77;;;7.30;99.90;;;;;;5076803;28;20435;-67
2023/01/03 21:00:41;;;;;;;15.40;10.80;;;7.20;99.90;;;;;;5077952;28;20552;-66
2023/01/03 21:03:08;;;;;;;14.03;11.07;;;7.10;99.90;;;;;;5077157;28;20450;-66
2023/01/03 21:05:35;;;;;;;13.80;10.97;;;7.10;99.90;;;;;;5077129;28;20450;-66
2023/01/03 21:10:52;;;;;;;14.30;10.40;;;7.00;99.90;;;;;;5059323;28;20901;-66
2023/01/03 21:13:21;;;;;;;13.00;10.43;;;6.90;99.90;;;;;;5085408;28;20470;-67
2023/01/03 21:15:49;;;;;;;12.60;10.27;;;6.90;99.90;;;;;;5085066;28;20454;-66
2023/01/03 21:18:17;;;;;;;11.40;10.07;;;6.90;99.90;;;;;;5084836;28;20457;-66
2023/01/03 21:20:44;;;;;;;12.90;10.27;;;6.90;99.90;;;;;;5077909;28;20910;-66
2023/01/03 21:23:16;;;;;;;10.63;9.63;;;6.80;99.90;;;;;;5078228;28;20430;-66
2023/01/03 21:25:43;;;;;;;11.60;10.50;;;6.80;99.90;;;;;;5077576;28;20855;-67
2023/01/03 21:28:13;;;;;;;12.47;11.13;;;6.90;99.90;;;;;;5080269;28;20442;-66
2023/01/03 21:30:42;;;;;;;11.90;9.30;;;6.80;99.90;;;;;;5083175;28;20504;-67
2023/01/03 21:33:16;;;;;;;12.23;9.53;;;6.90;99.90;;;;;;5081326;28;20485;-66
2023/01/03 21:35:45;;;;;;;10.83;9.73;;;6.90;99.90;;;;;;5083158;28;20441;-66
2023/01/03 21:38:12;;;;;;;11.93;9.47;;;6.90;99.90;;;;;;5085491;28;20504;-67
2023/01/03 21:40:39;;;;;;;10.43;9.43;;;7.00;99.90;;;;;;5085839;28;20470;-66
2023/01/03 21:43:06;;;;;;;10.47;9.37;;;7.00;99.90;;;;;;5085467;28;20449;-66
2023/01/03 21:45:37;;;;;;;9.33;8.33;;;7.00;99.90;;;;;;5085065;28;20446;-67
2023/01/03 21:48:07;;;;;;;9.10;7.90;;;7.00;99.90;;;;;;5085608;28;20452;-66
2023/01/03 21:50:38;;;;;;;13.90;9.33;;;6.90;99.90;;;;;;5085017;28;20480;-66
2023/01/03 21:53:09;;;;;;;9.53;8.63;;;7.00;99.90;;;;;;5085909;28;20474;-67
2023/01/03 21:55:39;;;;;;;11.20;9.50;;;7.00;99.90;;;;;;5084780;28;20914;-66
2023/01/03 21:58:06;;;;;;;12.37;9.07;;;7.00;99.90;;;;;;5085225;28;20829;-66
2023/01/03 22:00:35;;;;;;;9.77;8.77;;;7.10;99.90;;;;;;5085290;28;20533;-66
2023/01/03 22:05:46;;;;;;;9.63;8.27;;;7.10;99.90;;;;;;5084945;28;20433;-67
2023/01/03 22:08:13;;;;;;;8.50;7.80;;;7.10;99.90;;;;;;5085372;28;20437;-67
2023/01/03 22:10:41;;;;;;;9.00;8.17;;;7.10;99.90;;;;;;5082809;28;20489;-66
2023/01/03 22:13:11;;;;;;;8.20;7.43;;;7.00;99.90;;;;;;5083838;28;21079;-66
2023/01/03 22:15:39;;;;;;;8.13;7.10;;;7.00;99.90;;;;;;5083737;28;20945;-66
2023/01/03 22:18:09;;;;;;;7.73;6.90;;;7.00;99.90;;;;;;5083787;28;20480;-66
2023/01/03 22:20:36;;;;;;;7.93;6.87;;;7.00;99.90;;;;;;5084442;28;20494;-66
2023/01/03 22:23:05;;;;;;;9.43;8.50;;;7.00;99.90;;;;;;5085537;28;20473;-66
2023/01/03 22:25:32;;;;;;;13.33;9.90;;;6.90;99.90;;;;;;5084270;28;20457;-66
2023/01/03 22:27:59;;;;;;;10.47;9.47;;;6.90;99.90;;;;;;5084418;28;20856;-66
2023/01/03 22:30:27;;;;;;;11.47;10.37;;;6.80;99.90;;;;;;5085033;28;20474;-65
2023/01/03 22:32:56;;;;;;;11.67;10.00;;;6.70;99.90;;;;;;5085191;28;20471;-65
2023/01/03 22:35:23;;;;;;;11.37;10.37;;;6.70;99.90;;;;;;5087027;28;20457;-65
2023/01/03 22:37:50;;;;;;;11.27;9.90;;;6.60;99.90;;;;;;5089753;28;20446;-65
2023/01/03 22:40:18;;;;;;;14.77;8.53;;;6.70;99.90;;;;;;5088149;28;20450;-65
2023/01/03 22:42:45;;;;;;;12.93;11.07;;;7.10;99.90;;;;;;5084252;28;20450;-65
2023/01/03 22:45:14;;;;;;;12.27;10.97;;;7.50;99.90;;;;;;5078419;28;20813;-64
2023/01/03 22:47:41;;;;;;;13.00;11.60;;;7.70;99.90;;;;;;5075474;28;20454;-64
2023/01/03 22:50:11;;;;;;;11.30;10.20;;;8.00;99.90;;;;;;5074934;28;20512;-65
2023/01/03 22:52:38;;;;;;;11.33;10.20;;;7.80;99.90;;;;;;5074739;28;20485;-64
